createdAt,value
2019-01-21T00:00:59.711Z,-9.06
2019-01-21T00:02:37.978Z,-8.96
2019-01-21T00:04:13.350Z,-8.98
2019-01-21T00:05:50.056Z,-8.93
2019-01-21T00:07:28.043Z,-9.03
2019-01-21T00:09:04.770Z,-9.07
2019-01-21T00:10:40.458Z,-9.05
2019-01-21T00:12:19.447Z,-9.08
2019-01-21T00:13:56.034Z,-9.08
2019-01-21T00:15:31.288Z,-9.11
2019-01-21T00:17:06.622Z,-9.12
2019-01-21T00:18:42.295Z,-9.09
2019-01-21T00:20:17.896Z,-9.07
2019-01-21T00:21:57.093Z,-9.02
2019-01-21T00:23:32.948Z,-9.16
2019-01-21T00:25:08.395Z,-9.15
2019-01-21T00:26:45.499Z,-9.19
2019-01-21T00:28:20.820Z,-9.13
2019-01-21T00:29:59.930Z,-9.19
2019-01-21T00:31:35.161Z,-9.17
2019-01-21T00:33:15.704Z,-9.16
2019-01-21T00:34:51.153Z,-9.19
2019-01-21T00:36:26.928Z,-9.08
2019-01-21T00:38:02.733Z,-9.15
2019-01-21T00:39:39.712Z,-9.18
2019-01-21T00:41:15.554Z,-9.12
2019-01-21T00:42:53.684Z,-9.18
2019-01-21T00:44:29.413Z,-9.20
2019-01-21T00:46:04.733Z,-9.13
2019-01-21T00:47:41.824Z,-9.19
2019-01-21T00:49:17.394Z,-9.12
2019-01-21T00:50:52.837Z,-9.08
2019-01-21T00:52:28.563Z,-9.15
2019-01-21T00:54:06.016Z,-9.17
2019-01-21T00:55:43.566Z,-9.14
2019-01-21T00:57:22.045Z,-9.15
2019-01-21T00:58:57.573Z,-9.17
2019-01-21T01:00:34.549Z,-9.29
2019-01-21T01:02:09.927Z,-9.34
2019-01-21T01:03:47.390Z,-9.21
2019-01-21T01:05:23.070Z,-9.10
2019-01-21T01:06:58.805Z,-9.07
2019-01-21T01:08:34.739Z,-8.99
2019-01-21T01:10:11.596Z,-8.92
2019-01-21T01:11:47.021Z,-8.91
2019-01-21T01:13:23.726Z,-8.96
2019-01-21T01:15:05.840Z,-8.99
2019-01-21T01:16:43.405Z,-9.01
2019-01-21T01:18:18.722Z,-9.07
2019-01-21T01:19:57.622Z,-9.10
2019-01-21T01:21:35.301Z,-9.09
2019-01-21T01:23:11.067Z,-9.10
2019-01-21T01:24:47.208Z,-9.16
2019-01-21T01:26:22.784Z,-9.18
2019-01-21T01:27:59.405Z,-9.13
2019-01-21T01:29:34.977Z,-9.18
2019-01-21T01:31:10.638Z,-9.20
2019-01-21T01:32:46.397Z,-9.23
2019-01-21T01:34:21.727Z,-9.23
2019-01-21T01:35:57.020Z,-9.31
2019-01-21T01:37:33.482Z,-9.36
2019-01-21T01:39:10.564Z,-9.31
2019-01-21T01:40:46.565Z,-9.31
2019-01-21T01:42:22.821Z,-9.35
2019-01-21T01:43:59.299Z,-9.35
2019-01-21T01:45:35.250Z,-9.33
2019-01-21T01:47:10.769Z,-9.42
2019-01-21T01:48:47.713Z,-9.48
2019-01-21T01:50:23.561Z,-9.41
2019-01-21T01:51:59.073Z,-9.39
2019-01-21T01:53:34.680Z,-9.29
2019-01-21T01:55:10.821Z,-9.20
2019-01-21T01:56:46.201Z,-9.22
2019-01-21T01:58:23.478Z,-9.23
2019-01-21T02:00:06.781Z,-9.22
2019-01-21T02:01:42.358Z,-9.17
2019-01-21T02:03:20.488Z,-9.23
2019-01-21T02:04:56.627Z,-9.20
2019-01-21T02:06:32.286Z,-9.23
2019-01-21T02:08:10.906Z,-9.21
2019-01-21T02:09:46.346Z,-9.23
2019-01-21T02:11:21.856Z,-9.18
2019-01-21T02:12:57.261Z,-9.29
2019-01-21T02:14:32.461Z,-9.30
2019-01-21T02:16:07.727Z,-9.21
2019-01-21T02:17:52.031Z,-9.30
2019-01-21T02:19:26.133Z,-9.26
2019-01-21T02:21:02.175Z,-9.27
2019-01-21T02:22:37.705Z,-9.30
2019-01-21T02:24:14.497Z,-9.42
2019-01-21T02:26:02.653Z,-9.55
2019-01-21T02:28:20.358Z,-9.48
2019-01-21T02:30:35.120Z,-9.53
2019-01-21T02:33:06.393Z,-9.51
2019-01-21T02:35:06.858Z,-9.44
2019-01-21T02:37:35.552Z,-9.46
2019-01-21T02:39:34.828Z,-9.45
2019-01-21T02:41:34.900Z,-9.37
2019-01-21T02:43:50.637Z,-9.45
2019-01-21T02:45:58.240Z,-9.41
2019-01-21T02:47:42.290Z,-9.39
2019-01-21T02:49:46.567Z,-9.43
2019-01-21T02:52:02.735Z,-9.45
2019-01-21T02:53:50.662Z,-9.41
2019-01-21T02:55:43.784Z,-9.52
2019-01-21T02:57:48.450Z,-9.59
2019-01-21T03:00:07.343Z,-9.52
2019-01-21T03:02:22.716Z,-9.58
2019-01-21T03:04:41.061Z,-9.66
2019-01-21T03:06:47.595Z,-9.73
2019-01-21T03:09:05.163Z,-9.77
2019-01-21T03:11:28.375Z,-9.73
2019-01-21T03:13:25.367Z,-9.81
2019-01-21T03:15:40.101Z,-9.82
2019-01-21T03:18:07.885Z,-9.77
2019-01-21T03:20:09.485Z,-9.75
2019-01-21T03:22:15.493Z,-9.64
2019-01-21T03:24:30.609Z,-9.69
2019-01-21T03:26:39.032Z,-9.66
2019-01-21T03:28:46.482Z,-9.67
2019-01-21T03:31:03.050Z,-9.67
2019-01-21T03:33:26.791Z,-9.72
2019-01-21T03:35:24.285Z,-9.75
2019-01-21T03:37:30.411Z,-9.74
2019-01-21T03:39:34.361Z,-9.80
2019-01-21T03:41:21.115Z,-9.96
2019-01-21T03:43:25.745Z,-10.04
2019-01-21T03:45:50.865Z,-10.14
2019-01-21T03:47:48.697Z,-10.26
2019-01-21T03:49:34.182Z,-10.27
2019-01-21T03:51:49.157Z,-10.19
2019-01-21T03:53:56.454Z,-10.16
2019-01-21T03:55:34.896Z,-10.05
2019-01-21T03:57:31.840Z,-10.04
2019-01-21T03:59:56.254Z,-9.98
2019-01-21T04:02:14.573Z,-10.04
2019-01-21T04:04:24.147Z,-10.00
2019-01-21T04:06:22.587Z,-10.00
2019-01-21T04:08:26.628Z,-10.10
2019-01-21T04:10:28.553Z,-10.18
2019-01-21T04:12:40.654Z,-10.22
2019-01-21T04:14:48.521Z,-10.25
2019-01-21T04:16:51.042Z,-10.29
2019-01-21T04:19:02.758Z,-10.45
2019-01-21T04:21:37.168Z,-10.38
2019-01-21T04:24:04.614Z,-10.26
2019-01-21T04:26:13.320Z,-10.33
2019-01-21T04:28:05.989Z,-10.26
2019-01-21T04:30:26.880Z,-10.24
2019-01-21T04:32:11.564Z,-10.33
2019-01-21T04:34:21.474Z,-10.52
2019-01-21T04:36:25.204Z,-10.58
2019-01-21T04:38:42.391Z,-10.65
2019-01-21T04:40:42.750Z,-10.76
2019-01-21T04:42:43.524Z,-10.77
2019-01-21T04:45:05.697Z,-10.68
2019-01-21T04:47:14.804Z,-10.51
2019-01-21T04:49:45.764Z,-10.49
2019-01-21T04:51:40.698Z,-10.42
2019-01-21T04:53:48.605Z,-10.48
2019-01-21T04:55:51.726Z,-10.37
2019-01-21T04:58:05.591Z,-10.27
2019-01-21T05:00:42.896Z,-10.25
2019-01-21T05:03:00.393Z,-10.32
2019-01-21T05:05:03.318Z,-10.34
2019-01-21T05:07:05.219Z,-10.34
2019-01-21T05:09:18.063Z,-10.40
2019-01-21T05:11:48.582Z,-10.56
2019-01-21T05:13:56.394Z,-10.64
2019-01-21T05:16:03.894Z,-10.60
2019-01-21T05:18:16.428Z,-10.62
2019-01-21T05:20:22.602Z,-10.71
2019-01-21T05:22:49.658Z,-10.53
2019-01-21T05:25:09.135Z,-10.63
2019-01-21T05:27:31.517Z,-10.50
2019-01-21T05:30:04.718Z,-10.38
2019-01-21T05:32:28.744Z,-10.33
2019-01-21T05:34:34.661Z,-10.28
2019-01-21T05:37:02.845Z,-10.24
2019-01-21T05:39:23.337Z,-10.22
2019-01-21T05:41:44.236Z,-10.25
2019-01-21T05:43:51.415Z,-10.22
2019-01-21T05:46:02.896Z,-10.23
2019-01-21T05:48:01.645Z,-10.26
2019-01-21T05:50:23.885Z,-10.32
2019-01-21T05:52:58.089Z,-10.26
2019-01-21T05:55:16.022Z,-10.22
2019-01-21T05:57:31.455Z,-10.31
2019-01-21T05:59:52.220Z,-10.37
2019-01-21T06:02:14.707Z,-10.51
2019-01-21T06:04:27.725Z,-10.53
2019-01-21T06:06:53.488Z,-10.37
2019-01-21T06:08:58.028Z,-10.37
2019-01-21T06:11:03.181Z,-10.41
2019-01-21T06:13:24.990Z,-10.36
2019-01-21T06:15:46.447Z,-10.31
2019-01-21T06:18:01.830Z,-10.36
2019-01-21T06:20:22.974Z,-10.44
2019-01-21T06:22:41.146Z,-10.36
2019-01-21T06:24:50.253Z,-10.24
2019-01-21T06:27:23.923Z,-10.31
2019-01-21T06:29:57.963Z,-10.45
2019-01-21T06:32:16.507Z,-10.37
2019-01-21T06:34:22.073Z,-10.31
2019-01-21T06:36:27.662Z,-10.52
2019-01-21T06:38:38.499Z,-10.67
2019-01-21T06:41:08.444Z,-10.69
2019-01-21T06:43:04.043Z,-10.56
2019-01-21T06:45:09.085Z,-10.49
2019-01-21T06:47:29.682Z,-10.43
2019-01-21T06:49:48.092Z,-10.54
2019-01-21T06:51:37.005Z,-10.60
2019-01-21T06:53:51.597Z,-10.61
2019-01-21T06:55:51.360Z,-10.73
2019-01-21T06:57:53.342Z,-10.68
2019-01-21T07:00:07.110Z,-10.74
2019-01-21T07:04:37.765Z,-10.87
2019-01-21T07:06:53.145Z,-10.64
2019-01-21T07:08:47.009Z,-10.67
2019-01-21T07:10:43.813Z,-10.83
2019-01-21T07:13:01.831Z,-10.89
2019-01-21T07:15:16.081Z,-10.90
2019-01-21T07:17:42.920Z,-10.94
2019-01-21T07:19:32.106Z,-10.95
2019-01-21T07:22:00.140Z,-10.87
2019-01-21T07:24:04.819Z,-10.81
2019-01-21T07:26:31.711Z,-10.78
2019-01-21T07:28:54.463Z,-10.67
2019-01-21T07:31:31.074Z,-10.69
2019-01-21T07:33:44.889Z,-10.68
2019-01-21T07:35:50.119Z,-10.64
2019-01-21T07:37:56.567Z,-10.66
2019-01-21T07:40:24.880Z,-10.72
2019-01-21T07:42:26.200Z,-10.77
2019-01-21T07:44:57.482Z,-10.68
2019-01-21T07:47:12.197Z,-10.49
2019-01-21T07:49:05.350Z,-10.55
2019-01-21T07:51:28.372Z,-10.55
2019-01-21T07:53:30.018Z,-10.47
2019-01-21T07:55:55.316Z,-10.35
2019-01-21T07:58:08.390Z,-10.24
2019-01-21T08:00:33.822Z,-10.18
2019-01-21T08:03:01.771Z,-10.14
2019-01-21T08:05:17.687Z,-10.13
2019-01-21T08:07:35.218Z,-9.96
2019-01-21T08:09:35.660Z,-9.85
2019-01-21T08:12:11.838Z,-9.77
2019-01-21T08:14:18.697Z,-9.75
2019-01-21T08:16:47.379Z,-9.62
2019-01-21T08:18:59.596Z,-9.59
2019-01-21T08:21:07.724Z,-9.58
2019-01-21T08:23:30.410Z,-9.47
2019-01-21T08:25:47.188Z,-9.39
2019-01-21T08:27:36.998Z,-9.25
2019-01-21T08:29:52.690Z,-9.18
2019-01-21T08:31:42.096Z,-9.05
2019-01-21T08:33:26.390Z,-8.90
2019-01-21T08:35:43.990Z,-8.84
2019-01-21T08:37:45.780Z,-8.89
2019-01-21T08:39:57.037Z,-8.84
2019-01-21T08:41:55.991Z,-8.74
2019-01-21T08:44:03.450Z,-8.62
2019-01-21T08:46:10.234Z,-8.52
2019-01-21T08:48:23.507Z,-8.47
2019-01-21T08:50:30.371Z,-8.46
2019-01-21T08:52:58.493Z,-8.44
2019-01-21T08:55:09.746Z,-8.31
2019-01-21T08:57:38.192Z,-8.23
2019-01-21T08:59:43.122Z,-8.02
2019-01-21T09:01:58.088Z,-7.69
2019-01-21T09:03:58.276Z,-7.45
2019-01-21T09:05:58.897Z,-7.27
2019-01-21T09:08:11.270Z,-7.15
2019-01-21T09:10:28.734Z,-7.11
2019-01-21T09:12:34.769Z,-6.98
2019-01-21T09:14:34.197Z,-7.04
2019-01-21T09:17:09.066Z,-7.05
2019-01-21T09:19:16.578Z,-6.96
2019-01-21T09:21:37.648Z,-6.96
2019-01-21T09:23:29.322Z,-6.93
2019-01-21T09:25:53.586Z,-6.85
2019-01-21T09:28:28.212Z,-6.79
2019-01-21T09:30:39.178Z,-6.75
2019-01-21T09:32:55.687Z,-6.66
2019-01-21T09:35:12.035Z,-6.60
2019-01-21T09:37:23.765Z,-6.56
2019-01-21T09:39:54.926Z,-6.50
2019-01-21T09:42:16.545Z,-6.43
2019-01-21T09:44:21.324Z,-6.35
2019-01-21T09:46:25.835Z,-6.23
2019-01-21T09:47:59.590Z,-6.12
2019-01-21T09:49:33.916Z,-6.00
2019-01-21T09:51:09.706Z,-5.93
2019-01-21T09:52:45.171Z,-5.87
2019-01-21T09:54:27.404Z,-5.81
2019-01-21T09:56:02.745Z,-5.66
2019-01-21T09:57:42.853Z,-5.61
2019-01-21T09:59:17.807Z,-5.59
2019-01-21T10:01:07.755Z,-5.49
2019-01-21T10:02:56.281Z,-5.46
2019-01-21T10:04:41.367Z,-5.42
2019-01-21T10:06:17.072Z,-5.38
2019-01-21T10:08:25.593Z,-5.37
2019-01-21T10:10:30.491Z,-5.30
2019-01-21T10:12:33.866Z,-5.27
2019-01-21T10:14:53.454Z,-5.26
2019-01-21T10:17:08.197Z,-5.19
2019-01-21T10:19:11.246Z,-5.13
2019-01-21T10:21:10.223Z,-5.10
2019-01-21T10:23:05.918Z,-5.03
2019-01-21T10:25:17.410Z,-4.96
2019-01-21T10:27:39.807Z,-4.97
2019-01-21T10:29:27.354Z,-4.95
2019-01-21T10:31:34.788Z,-4.91
2019-01-21T10:33:49.679Z,-4.84
2019-01-21T10:36:06.443Z,-4.86
2019-01-21T10:38:20.313Z,-4.83
2019-01-21T10:40:19.782Z,-4.74
2019-01-21T10:42:28.883Z,-4.71
2019-01-21T10:44:34.820Z,-4.66
2019-01-21T10:47:18.104Z,-4.56
2019-01-21T10:49:37.529Z,-4.46
2019-01-21T10:52:01.887Z,-4.37
2019-01-21T10:54:01.890Z,-4.37
2019-01-21T10:56:23.095Z,-4.38
2019-01-21T10:58:38.313Z,-4.40
2019-01-21T11:01:09.845Z,-4.47
2019-01-21T11:03:16.641Z,-4.44
2019-01-21T11:05:45.535Z,-4.47
2019-01-21T11:08:02.226Z,-4.44
2019-01-21T11:10:35.197Z,-4.39
2019-01-21T11:12:28.762Z,-4.37
2019-01-21T11:15:02.602Z,-4.21
2019-01-21T11:16:57.325Z,-4.13
2019-01-21T11:19:13.207Z,-4.08
2019-01-21T11:21:17.806Z,-4.08
2019-01-21T11:23:33.861Z,-3.98
2019-01-21T11:26:19.634Z,-3.98
2019-01-21T11:28:43.423Z,-3.88
2019-01-21T11:30:44.474Z,-3.91
2019-01-21T11:33:15.421Z,-3.92
2019-01-21T11:35:28.377Z,-3.91
2019-01-21T11:37:43.757Z,-3.79
2019-01-21T11:40:04.743Z,-3.69
2019-01-21T11:42:04.746Z,-3.62
2019-01-21T11:44:31.975Z,-3.51
2019-01-21T11:47:11.408Z,-3.51
2019-01-21T11:49:21.196Z,-3.50
2019-01-21T11:51:40.472Z,-3.50
2019-01-21T11:53:40.953Z,-3.51
2019-01-21T11:55:35.174Z,-3.41
2019-01-21T11:57:26.195Z,-3.38
2019-01-21T11:59:44.613Z,-3.28
2019-01-21T12:01:53.938Z,-3.32
2019-01-21T12:03:54.682Z,-3.28
2019-01-21T12:06:00.250Z,-3.27
2019-01-21T12:08:08.461Z,-3.25
2019-01-21T12:10:15.388Z,-3.07
2019-01-21T12:12:08.812Z,-2.76
2019-01-21T12:14:13.304Z,-2.65
2019-01-21T12:16:41.679Z,-2.55
2019-01-21T12:18:53.483Z,-2.44
2019-01-21T12:20:58.696Z,-2.07
2019-01-21T12:23:04.274Z,-1.86
2019-01-21T12:25:00.214Z,-1.91
2019-01-21T12:27:16.606Z,-1.91
2019-01-21T12:29:44.030Z,-1.83
2019-01-21T12:31:38.405Z,-1.95
2019-01-21T12:34:22.154Z,-1.78
2019-01-21T12:36:17.764Z,-1.79
2019-01-21T12:38:25.344Z,-1.77
2019-01-21T12:40:49.890Z,-1.59
2019-01-21T12:43:10.376Z,-1.56
2019-01-21T12:45:38.235Z,-1.58
2019-01-21T12:47:37.671Z,-1.49
2019-01-21T12:49:38.060Z,-1.56
2019-01-21T12:51:39.461Z,-1.80
2019-01-21T12:54:11.063Z,-1.87
2019-01-21T12:56:13.530Z,-1.91
2019-01-21T12:58:21.308Z,-1.84
2019-01-21T13:00:28.967Z,-1.83
2019-01-21T13:02:32.447Z,-1.86
2019-01-21T13:04:45.563Z,-1.84
2019-01-21T13:06:42.589Z,-2.02
2019-01-21T13:09:09.414Z,-2.06
2019-01-21T13:11:15.098Z,-2.10
2019-01-21T13:13:33.930Z,-2.28
2019-01-21T13:15:51.825Z,-2.32
2019-01-21T13:18:19.859Z,-2.38
2019-01-21T13:20:21.242Z,-2.38
2019-01-21T13:22:41.089Z,-2.41
2019-01-21T13:24:32.117Z,-2.41
2019-01-21T13:26:49.244Z,-2.33
2019-01-21T13:29:04.604Z,-2.32
2019-01-21T13:31:17.094Z,-2.33
2019-01-21T13:33:19.363Z,-2.28
2019-01-21T13:35:40.011Z,-2.33
2019-01-21T13:37:58.975Z,-2.34
2019-01-21T13:40:01.593Z,-2.34
2019-01-21T13:42:45.003Z,-2.30
2019-01-21T13:45:13.745Z,-2.31
2019-01-21T13:47:33.472Z,-2.29
2019-01-21T13:49:36.524Z,-2.35
2019-01-21T13:52:09.801Z,-2.34
2019-01-21T13:54:55.792Z,-2.37
2019-01-21T13:57:09.970Z,-2.38
2019-01-21T13:59:32.998Z,-2.35
2019-01-21T14:01:49.417Z,-2.37
2019-01-21T14:04:29.779Z,-2.35
2019-01-21T14:06:52.623Z,-2.36
2019-01-21T14:08:59.278Z,-2.33
2019-01-21T14:11:16.541Z,-2.33
2019-01-21T14:13:34.794Z,-2.32
2019-01-21T14:15:53.916Z,-2.33
2019-01-21T14:18:14.252Z,-2.34
2019-01-21T14:20:31.008Z,-2.36
2019-01-21T14:22:47.173Z,-2.36
2019-01-21T14:25:11.160Z,-2.38
2019-01-21T14:27:33.476Z,-2.36
2019-01-21T14:29:47.233Z,-2.28
2019-01-21T14:32:02.938Z,-2.31
2019-01-21T14:33:58.264Z,-2.31
2019-01-21T14:36:24.455Z,-2.32
2019-01-21T14:38:38.673Z,-2.32
2019-01-21T14:40:46.651Z,-2.34
2019-01-21T14:43:08.429Z,-2.39
2019-01-21T14:45:25.812Z,-2.42
2019-01-21T14:48:05.483Z,-2.44
2019-01-21T14:50:18.832Z,-2.47
2019-01-21T14:52:32.882Z,-2.54
2019-01-21T14:54:45.911Z,-2.58
2019-01-21T14:56:57.269Z,-2.60
2019-01-21T14:59:08.494Z,-2.57
2019-01-21T15:01:06.127Z,-2.53
2019-01-21T15:03:13.086Z,-2.59
2019-01-21T15:05:28.442Z,-2.63
2019-01-21T15:07:47.375Z,-2.70
2019-01-21T15:10:19.669Z,-2.78
2019-01-21T15:12:19.554Z,-2.82
2019-01-21T15:14:31.874Z,-2.92
2019-01-21T15:16:57.063Z,-3.02
2019-01-21T15:19:10.231Z,-3.07
2019-01-21T15:21:12.618Z,-3.15
2019-01-21T15:23:09.633Z,-3.20
2019-01-21T15:25:45.415Z,-3.20
2019-01-21T15:28:21.260Z,-3.32
2019-01-21T15:30:35.118Z,-3.30
2019-01-21T15:32:45.302Z,-3.35
2019-01-21T15:35:20.510Z,-3.47
2019-01-21T15:37:33.433Z,-3.49
2019-01-21T15:39:58.289Z,-3.52
2019-01-21T15:41:51.794Z,-3.54
2019-01-21T15:44:18.056Z,-3.59
2019-01-21T15:46:11.864Z,-3.66
2019-01-21T15:48:24.694Z,-3.82
2019-01-21T15:50:47.839Z,-3.85
2019-01-21T15:52:57.368Z,-4.00
2019-01-21T15:55:24.571Z,-4.04
2019-01-21T15:57:30.384Z,-4.07
2019-01-21T15:59:23.937Z,-4.13
2019-01-21T16:01:55.891Z,-4.28
2019-01-21T16:04:30.635Z,-4.40
2019-01-21T16:06:56.063Z,-4.62
2019-01-21T16:09:02.160Z,-4.66
2019-01-21T16:11:19.709Z,-4.85
2019-01-21T16:13:29.553Z,-4.96
2019-01-21T16:15:58.459Z,-5.06
2019-01-21T16:18:27.443Z,-5.08
2019-01-21T16:20:28.129Z,-5.18
2019-01-21T16:22:33.162Z,-5.24
2019-01-21T16:24:42.219Z,-5.37
2019-01-21T16:26:51.321Z,-5.55
2019-01-21T16:29:08.476Z,-5.57
2019-01-21T16:31:06.148Z,-5.68
2019-01-21T16:33:48.151Z,-5.73
2019-01-21T16:35:41.947Z,-5.79
2019-01-21T16:37:53.275Z,-5.86
2019-01-21T16:40:01.864Z,-5.94
2019-01-21T16:42:21.470Z,-5.96
2019-01-21T16:44:09.122Z,-6.09
2019-01-21T16:45:49.308Z,-6.12
2019-01-21T16:47:26.548Z,-6.15
2019-01-21T16:49:12.442Z,-6.21
2019-01-21T16:50:48.719Z,-6.24
2019-01-21T16:52:29.762Z,-6.24
2019-01-21T16:54:12.749Z,-6.22
2019-01-21T16:55:53.526Z,-6.27
2019-01-21T16:57:29.861Z,-6.29
2019-01-21T16:59:05.631Z,-6.31
2019-01-21T17:00:46.185Z,-6.31
2019-01-21T17:02:29.984Z,-6.32
2019-01-21T17:04:13.149Z,-6.30
2019-01-21T17:06:02.239Z,-6.27
2019-01-21T17:07:51.222Z,-6.24
2019-01-21T17:09:37.527Z,-6.25
2019-01-21T17:11:24.210Z,-6.35
2019-01-21T17:13:20.919Z,-6.46
2019-01-21T17:15:00.769Z,-6.52
2019-01-21T17:16:46.553Z,-6.68
2019-01-21T17:18:27.923Z,-6.76
2019-01-21T17:20:19.041Z,-6.83
2019-01-21T17:22:14.455Z,-6.89
2019-01-21T17:23:56.426Z,-6.95
2019-01-21T17:25:37.550Z,-6.88
2019-01-21T17:27:26.391Z,-7.02
2019-01-21T17:29:15.629Z,-6.98
2019-01-21T17:30:54.854Z,-7.13
2019-01-21T17:32:35.760Z,-7.03
2019-01-21T17:34:24.540Z,-6.84
2019-01-21T17:36:12.586Z,-6.79
2019-01-21T17:37:59.742Z,-6.63
2019-01-21T17:39:57.254Z,-6.66
2019-01-21T17:41:53.944Z,-6.58
2019-01-21T17:43:38.818Z,-6.46
2019-01-21T17:45:34.307Z,-6.40
2019-01-21T17:47:18.470Z,-6.34
2019-01-21T17:49:03.131Z,-6.41
2019-01-21T17:50:52.010Z,-6.47
2019-01-21T17:52:42.295Z,-6.67
2019-01-21T17:54:35.197Z,-6.87
2019-01-21T17:56:16.902Z,-7.06
2019-01-21T17:58:07.356Z,-7.10
2019-01-21T17:59:53.767Z,-7.10
2019-01-21T18:01:39.444Z,-7.07
2019-01-21T18:03:29.978Z,-6.90
2019-01-21T18:05:08.356Z,-6.74
2019-01-21T18:06:58.457Z,-6.89
2019-01-21T18:08:45.524Z,-6.93
2019-01-21T18:10:29.071Z,-7.07
2019-01-21T18:12:09.130Z,-7.23
2019-01-21T18:13:47.740Z,-7.36
2019-01-21T18:15:24.282Z,-7.48
2019-01-21T18:17:00.538Z,-7.25
2019-01-21T18:18:47.275Z,-7.32
2019-01-21T18:22:36.273Z,-7.05
2019-01-21T18:24:21.894Z,-7.16
2019-01-21T18:29:00.007Z,-7.42
2019-01-21T18:30:59.449Z,-7.52
2019-01-21T18:32:35.397Z,-7.62
2019-01-21T18:34:23.938Z,-7.71
2019-01-21T18:36:13.224Z,-7.56
2019-01-21T18:37:58.540Z,-7.39
2019-01-21T18:39:35.800Z,-7.29
2019-01-21T18:41:17.300Z,-7.27
2019-01-21T18:43:01.259Z,-7.22
2019-01-21T18:44:38.450Z,-7.15
2019-01-21T18:46:22.004Z,-7.15
2019-01-21T18:48:06.560Z,-7.16
2019-01-21T18:49:46.218Z,-7.14
2019-01-21T18:51:24.403Z,-7.13
2019-01-21T18:53:08.806Z,-7.06
2019-01-21T18:54:44.856Z,-7.03
2019-01-21T18:56:45.836Z,-7.01
2019-01-21T18:58:24.449Z,-6.95
2019-01-21T19:00:05.204Z,-6.92
2019-01-21T19:01:44.246Z,-7.03
2019-01-21T19:03:20.430Z,-7.04
2019-01-21T19:04:59.482Z,-6.91
2019-01-21T19:06:34.923Z,-6.85
2019-01-21T19:08:22.177Z,-6.91
2019-01-21T19:10:06.299Z,-6.85
2019-01-21T19:11:48.114Z,-6.78
2019-01-21T19:13:41.295Z,-6.77
2019-01-21T19:15:25.249Z,-6.76
2019-01-21T19:17:01.296Z,-6.83
2019-01-21T19:18:41.462Z,-6.89
2019-01-21T19:20:24.831Z,-6.95
2019-01-21T19:22:06.989Z,-6.96
2019-01-21T19:23:50.379Z,-6.96
2019-01-21T19:25:27.789Z,-7.05
2019-01-21T19:27:11.651Z,-6.99
2019-01-21T19:28:50.314Z,-7.02
2019-01-21T19:30:37.881Z,-7.05
2019-01-21T19:32:15.992Z,-7.06
2019-01-21T19:33:55.463Z,-7.17
2019-01-21T19:35:36.996Z,-7.18
2019-01-21T19:37:17.208Z,-7.14
2019-01-21T19:38:55.825Z,-7.21
2019-01-21T19:40:35.494Z,-7.28
2019-01-21T19:42:11.154Z,-7.35
2019-01-21T19:43:50.254Z,-7.53
2019-01-21T19:45:35.101Z,-7.63
2019-01-21T19:47:10.579Z,-7.67
2019-01-21T19:48:50.807Z,-7.69
2019-01-21T19:50:29.388Z,-7.64
2019-01-21T19:52:06.520Z,-7.70
2019-01-21T19:53:42.047Z,-7.72
2019-01-21T19:55:24.300Z,-7.81
2019-01-21T19:57:21.263Z,-7.73
2019-01-21T19:59:03.126Z,-7.91
2019-01-21T20:00:41.253Z,-8.03
2019-01-21T20:02:20.032Z,-7.92
2019-01-21T20:03:55.796Z,-8.07
2019-01-21T20:05:31.433Z,-8.11
2019-01-21T20:07:16.138Z,-8.17
2019-01-21T20:09:19.051Z,-8.24
2019-01-21T20:10:59.251Z,-8.26
2019-01-21T20:12:45.691Z,-8.27
2019-01-21T20:14:26.394Z,-8.41
2019-01-21T20:16:07.297Z,-8.42
2019-01-21T20:17:44.657Z,-8.53
2019-01-21T20:19:25.459Z,-8.54
2019-01-21T20:21:05.545Z,-8.55
2019-01-21T20:22:41.047Z,-8.68
2019-01-21T20:24:16.986Z,-8.75
2019-01-21T20:25:57.886Z,-8.81
2019-01-21T20:27:33.592Z,-8.87
2019-01-21T20:29:13.845Z,-8.92
2019-01-21T20:30:57.388Z,-8.97
2019-01-21T20:32:35.899Z,-8.99
2019-01-21T20:34:16.052Z,-9.00
2019-01-21T20:35:56.492Z,-8.99
2019-01-21T20:37:34.033Z,-8.94
2019-01-21T20:39:14.446Z,-8.99
2019-01-21T20:40:57.156Z,-8.99
2019-01-21T20:42:37.944Z,-8.94
2019-01-21T20:44:19.092Z,-8.99
2019-01-21T20:46:04.291Z,-9.00
2019-01-21T20:47:42.860Z,-8.99
2019-01-21T20:49:20.309Z,-8.99
2019-01-21T20:51:04.463Z,-8.88
2019-01-21T20:52:40.499Z,-8.74
2019-01-21T20:54:18.630Z,-8.65
2019-01-21T20:55:55.889Z,-8.61
2019-01-21T20:57:34.774Z,-8.69
2019-01-21T20:59:12.617Z,-8.69
2019-01-21T21:00:58.161Z,-8.56
2019-01-21T21:02:34.726Z,-8.39
2019-01-21T21:04:42.450Z,-8.20
2019-01-21T21:06:21.520Z,-8.12
2019-01-21T21:08:19.787Z,-8.10
2019-01-21T21:10:02.525Z,-8.09
2019-01-21T21:11:42.731Z,-8.05
2019-01-21T21:13:20.264Z,-8.09
2019-01-21T21:15:03.470Z,-8.17
2019-01-21T21:16:41.722Z,-8.27
2019-01-21T21:18:25.121Z,-8.35
2019-01-21T21:20:07.829Z,-8.40
2019-01-21T21:21:52.506Z,-8.53
2019-01-21T21:23:31.153Z,-8.56
2019-01-21T21:25:13.088Z,-8.43
2019-01-21T21:26:56.260Z,-8.36
2019-01-21T21:28:35.017Z,-8.39
2019-01-21T21:30:35.407Z,-8.29
2019-01-21T21:32:12.335Z,-8.09
2019-01-21T21:33:51.650Z,-8.12
2019-01-21T21:35:32.858Z,-8.20
2019-01-21T21:37:09.767Z,-8.21
2019-01-21T21:38:50.020Z,-8.06
2019-01-21T21:40:27.822Z,-7.96
2019-01-21T21:42:09.416Z,-7.84
2019-01-21T21:43:52.190Z,-7.85
2019-01-21T21:45:29.062Z,-7.89
2019-01-21T21:47:05.616Z,-7.93
2019-01-21T21:48:45.263Z,-7.81
2019-01-21T21:50:33.527Z,-7.82
2019-01-21T21:52:12.987Z,-7.83
2019-01-21T21:53:50.592Z,-7.87
2019-01-21T21:55:39.401Z,-7.89
2019-01-21T21:57:40.267Z,-7.90
2019-01-21T21:59:11.147Z,-7.87
2019-01-21T22:00:50.422Z,-7.88
2019-01-21T22:02:27.241Z,-7.89
2019-01-21T22:04:07.453Z,-8.03
2019-01-21T22:05:49.775Z,-8.26
2019-01-21T22:07:32.613Z,-8.40
2019-01-21T22:09:09.769Z,-8.38
2019-01-21T22:10:50.848Z,-8.34
2019-01-21T22:12:32.474Z,-8.36
2019-01-21T22:14:09.887Z,-8.44
2019-01-21T22:15:50.720Z,-8.57
2019-01-21T22:17:30.533Z,-8.47
2019-01-21T22:19:08.211Z,-8.21
2019-01-21T22:20:52.812Z,-8.12
2019-01-21T22:22:34.750Z,-8.08
2019-01-21T22:24:08.732Z,-8.09
2019-01-21T22:25:49.548Z,-7.98
2019-01-21T22:27:29.802Z,-7.93
2019-01-21T22:29:12.828Z,-7.98
2019-01-21T22:31:04.328Z,-7.96
2019-01-21T22:32:48.734Z,-7.89
2019-01-21T22:34:26.689Z,-7.97
2019-01-21T22:36:03.830Z,-8.04
2019-01-21T22:37:42.324Z,-8.03
2019-01-21T22:39:19.974Z,-8.04
2019-01-21T22:40:57.570Z,-8.06
2019-01-21T22:42:35.719Z,-8.11
2019-01-21T22:44:11.698Z,-8.07
2019-01-21T22:45:47.159Z,-8.10
2019-01-21T22:47:22.764Z,-8.09
2019-01-21T22:49:00.601Z,-8.09
2019-01-21T22:50:36.642Z,-8.17
2019-01-21T22:52:13.254Z,-8.24
2019-01-21T22:53:49.340Z,-8.22
2019-01-21T22:55:30.160Z,-8.29
2019-01-21T22:57:05.279Z,-8.34
2019-01-21T22:58:44.720Z,-8.39
2019-01-21T23:00:54.360Z,-8.43
2019-01-21T23:04:30.295Z,-8.49
2019-01-21T23:06:11.868Z,-8.50
2019-01-21T23:07:50.379Z,-8.53
2019-01-21T23:09:34.150Z,-8.54
2019-01-21T23:11:13.843Z,-8.52
2019-01-21T23:12:51.560Z,-8.53
2019-01-21T23:14:30.431Z,-8.50
2019-01-21T23:16:06.142Z,-8.50
2019-01-21T23:17:49.175Z,-8.53
2019-01-21T23:19:31.841Z,-8.55
2019-01-21T23:21:14.384Z,-8.56
2019-01-21T23:22:50.507Z,-8.60
2019-01-21T23:24:32.612Z,-8.64
2019-01-21T23:26:10.200Z,-8.59
2019-01-21T23:27:52.607Z,-8.64
2019-01-21T23:29:30.021Z,-8.65
2019-01-21T23:31:06.067Z,-8.63
2019-01-21T23:32:46.727Z,-8.54
2019-01-21T23:34:22.817Z,-8.59
2019-01-21T23:35:58.652Z,-8.61
2019-01-21T23:37:40.481Z,-8.63
2019-01-21T23:39:17.862Z,-8.62
2019-01-21T23:40:58.648Z,-8.63
2019-01-21T23:42:43.284Z,-8.56
2019-01-21T23:44:22.569Z,-8.50
2019-01-21T23:46:02.514Z,-8.48
2019-01-21T23:47:37.959Z,-8.50
2019-01-21T23:49:14.374Z,-8.52
2019-01-21T23:51:02.031Z,-8.55
2019-01-21T23:52:40.747Z,-8.60
2019-01-21T23:54:18.502Z,-8.52
2019-01-21T23:55:54.276Z,-8.51
2019-01-21T23:57:30.456Z,-8.47
2019-01-21T23:59:10.362Z,-8.50
